Morristown Municipal Airport Morristown US
ICAO: KMMU
IATA: MMU
Category: Medium
Scheduled Services: No

Elevation: 187 ft
TransAlt. 18000 ft.

Airport Communications:
NEW YORK APP:127.6
ATIS:124.25
CLNC DEL:121.2
CTAF:118.1
NEW YORK DEP:119.2
GND:121.7
TWR:118.1

KMMU Zoom In..

Runways:

(A) RW 05 length 5998 ft width 150 ft
---- / hdg 49

(B) RW 13 length 3997 ft width 150 ft
---- / hdg 127

(C) RW 23 length 5998 ft width 150 ft
ILS 110.30 / hdg 229

(D) RW 31 length 3997 ft width 150 ft
---- / hdg 307

Location; KMMU
Day. 23 / Time. 21.45 Zulu
* Altimeter: 29.61
* Temperature: 11° c. 51.8°f.
* Wind from: 300° Speed 14 kn with Gusts up to 24 kn.
Dewpoint: 04° c.
Visibility: 10 Statute Miles.
Clouds: Scattered 3500 ft.
Clouds: Broken 6000 ft.

KMMU 232145Z 30014G24KT 10SM SCT035 BKN060 11/04 A2961


Wind From 300°
Speed 14 kn.

YouTube Music Video
 
jpsmedia.com for Web Design  worldairports.se 2018   terms of use